createdAt,value
2022-08-24T00:00:41.139Z,5.63
2022-08-24T00:03:11.994Z,5.95
2022-08-24T00:05:40.407Z,6.10
2022-08-24T00:08:08.380Z,5.63
2022-08-24T00:10:36.583Z,6.65
2022-08-24T00:13:05.969Z,6.03
2022-08-24T00:15:34.246Z,6.30
2022-08-24T00:18:02.381Z,6.95
2022-08-24T00:20:30.611Z,5.97
2022-08-24T00:22:59.413Z,6.40
2022-08-24T00:25:27.647Z,6.22
2022-08-24T00:27:55.772Z,6.32
2022-08-24T00:30:25.976Z,7.30
2022-08-24T00:32:54.767Z,7.55
2022-08-24T00:35:23.001Z,7.38
2022-08-24T00:37:52.384Z,7.43
2022-08-24T00:40:23.213Z,7.40
2022-08-24T00:42:51.628Z,8.10
2022-08-24T00:45:20.339Z,7.13
2022-08-24T00:47:53.362Z,7.88
2022-08-24T00:50:24.885Z,7.85
2022-08-24T00:52:58.035Z,7.27
2022-08-24T00:55:29.494Z,8.70
2022-08-24T00:58:01.539Z,7.20
2022-08-24T01:00:32.268Z,8.45
2022-08-24T01:03:04.727Z,7.72
2022-08-24T01:05:33.747Z,9.88
2022-08-24T01:08:03.472Z,11.27
2022-08-24T01:10:34.743Z,9.40
2022-08-24T01:13:05.792Z,8.90
2022-08-24T01:15:37.544Z,8.55
2022-08-24T01:18:25.790Z,8.50
2022-08-24T01:20:57.895Z,9.50
2022-08-24T01:23:36.989Z,10.23
2022-08-24T01:26:05.458Z,10.60
2022-08-24T01:28:36.967Z,9.52
2022-08-24T01:31:05.557Z,9.32
2022-08-24T01:33:33.847Z,9.13
2022-08-24T01:36:04.699Z,9.60
2022-08-24T01:38:34.518Z,8.93
2022-08-24T01:41:04.013Z,9.00
2022-08-24T01:43:32.422Z,10.23
2022-08-24T01:46:05.472Z,10.77
2022-08-24T01:48:33.468Z,11.77
2022-08-24T01:51:01.456Z,10.98
2022-08-24T01:53:30.148Z,10.57
2022-08-24T01:55:59.468Z,9.70
2022-08-24T01:58:27.420Z,10.57
2022-08-24T02:00:55.704Z,9.55
2022-08-24T02:03:29.479Z,8.05
2022-08-24T02:05:58.973Z,8.88
2022-08-24T02:08:27.589Z,8.88
2022-08-24T02:10:57.032Z,8.18
2022-08-24T02:13:27.056Z,7.97
2022-08-24T02:15:55.365Z,7.93
2022-08-24T02:18:23.405Z,16.23
2022-08-24T02:20:51.527Z,9.82
2022-08-24T02:23:20.353Z,6.97
2022-08-24T02:25:48.585Z,9.13
2022-08-24T02:28:16.577Z,8.40
2022-08-24T02:30:45.987Z,8.05
2022-08-24T02:33:14.456Z,8.82
2022-08-24T02:35:42.797Z,8.23
2022-08-24T02:38:10.865Z,9.13
2022-08-24T02:40:38.886Z,8.20
2022-08-24T02:43:06.864Z,9.52
2022-08-24T02:45:39.311Z,9.43
2022-08-24T02:48:08.616Z,9.55
2022-08-24T02:50:39.368Z,9.75
2022-08-24T02:53:07.684Z,9.68
2022-08-24T02:55:35.991Z,9.80
2022-08-24T02:58:04.047Z,10.90
2022-08-24T03:00:32.102Z,9.70
2022-08-24T03:03:00.323Z,10.25
2022-08-24T03:05:30.136Z,12.82
2022-08-24T03:07:58.091Z,17.90
2022-08-24T03:10:26.415Z,13.20
2022-08-24T03:12:58.799Z,12.55
2022-08-24T03:15:27.360Z,17.80
2022-08-24T03:17:55.369Z,19.02
2022-08-24T03:20:24.391Z,21.30
2022-08-24T03:22:53.863Z,22.75
2022-08-24T03:25:24.637Z,24.25
2022-08-24T03:27:53.361Z,22.40
2022-08-24T03:30:22.476Z,26.10
2022-08-24T03:32:50.816Z,29.77
2022-08-24T03:35:21.763Z,27.65
2022-08-24T03:37:50.870Z,27.00
2022-08-24T03:40:24.507Z,27.85
2022-08-24T03:42:53.311Z,29.02
2022-08-24T03:45:22.807Z,34.38
2022-08-24T03:47:50.900Z,33.67
2022-08-24T03:50:19.850Z,34.97
2022-08-24T03:52:48.425Z,39.10
2022-08-24T03:55:16.575Z,46.38
2022-08-24T03:57:46.289Z,39.90
2022-08-24T04:00:15.006Z,49.08
2022-08-24T04:02:44.331Z,44.90
2022-08-24T04:05:13.326Z,44.53
2022-08-24T04:07:41.314Z,46.42
2022-08-24T04:10:11.343Z,43.10
2022-08-24T04:12:39.331Z,39.78
2022-08-24T04:15:10.061Z,41.45
2022-08-24T04:17:38.021Z,47.15
2022-08-24T04:20:07.512Z,42.60
2022-08-24T04:22:36.383Z,42.20
2022-08-24T04:25:09.079Z,40.17
2022-08-24T04:27:38.170Z,43.13
2022-08-24T04:30:06.896Z,42.70
2022-08-24T04:32:36.228Z,47.70
2022-08-24T04:35:06.464Z,48.85
2022-08-24T04:37:34.444Z,43.28
2022-08-24T04:40:03.299Z,43.17
2022-08-24T04:42:33.431Z,43.03
2022-08-24T04:45:01.590Z,42.35
2022-08-24T04:47:29.523Z,41.28
2022-08-24T04:49:58.791Z,40.10
2022-08-24T04:52:26.993Z,39.67
2022-08-24T04:54:55.012Z,40.80
2022-08-24T04:57:22.976Z,36.85
2022-08-24T04:59:51.293Z,39.55
2022-08-24T05:02:20.939Z,41.80
2022-08-24T05:04:49.399Z,45.30
2022-08-24T05:07:19.691Z,39.20
2022-08-24T05:09:47.660Z,33.50
2022-08-24T05:12:15.642Z,35.28
2022-08-24T05:14:43.585Z,35.15
2022-08-24T05:17:11.570Z,32.88
2022-08-24T05:19:39.670Z,35.53
2022-08-24T05:22:07.673Z,32.88
2022-08-24T05:24:36.988Z,32.30
2022-08-24T05:27:05.371Z,28.15
2022-08-24T05:29:34.726Z,25.55
2022-08-24T05:32:03.135Z,25.40
2022-08-24T05:34:32.769Z,23.75
2022-08-24T05:37:00.747Z,24.20
2022-08-24T05:39:30.957Z,24.35
2022-08-24T05:42:00.904Z,24.90
2022-08-24T05:44:31.160Z,25.10
2022-08-24T05:46:59.674Z,24.20
2022-08-24T05:49:28.018Z,23.02
2022-08-24T05:51:56.301Z,22.77
2022-08-24T05:54:26.903Z,25.48
2022-08-24T05:56:57.229Z,25.67
2022-08-24T05:59:26.512Z,27.90
2022-08-24T06:01:54.632Z,27.05
2022-08-24T06:04:22.698Z,26.02
2022-08-24T06:06:52.904Z,25.02
2022-08-24T06:09:21.439Z,26.42
2022-08-24T06:11:49.401Z,26.10
2022-08-24T06:14:20.226Z,25.90
2022-08-24T06:16:52.640Z,25.50
2022-08-24T06:19:21.620Z,24.70
2022-08-24T06:21:51.732Z,24.42
2022-08-24T06:24:40.591Z,24.75
2022-08-24T06:27:23.110Z,26.05
2022-08-24T06:32:21.193Z,23.50
2022-08-24T06:34:49.220Z,25.27
2022-08-24T06:37:18.351Z,21.73
2022-08-24T06:39:46.704Z,22.10
2022-08-24T06:42:14.738Z,21.42
2022-08-24T06:44:43.143Z,19.02
2022-08-24T06:47:11.340Z,16.58
2022-08-24T06:49:40.884Z,15.93
2022-08-24T06:52:10.180Z,17.60
2022-08-24T06:54:38.506Z,19.45
2022-08-24T06:57:07.005Z,18.33
2022-08-24T06:59:34.972Z,20.65
2022-08-24T07:02:03.044Z,18.92
2022-08-24T07:04:31.141Z,19.33
2022-08-24T07:07:00.629Z,19.60
2022-08-24T07:09:32.124Z,18.80
2022-08-24T07:12:00.458Z,18.85
2022-08-24T07:14:28.636Z,18.10
2022-08-24T07:16:56.701Z,15.73
2022-08-24T07:19:25.294Z,16.25
2022-08-24T07:21:56.956Z,15.98
2022-08-24T07:24:26.361Z,15.85
2022-08-24T07:26:54.339Z,16.08
2022-08-24T07:29:46.347Z,16.05
2022-08-24T07:32:11.194Z,15.60
2022-08-24T07:34:39.158Z,16.15
2022-08-24T07:37:07.847Z,16.48
2022-08-24T07:39:37.216Z,16.30
2022-08-24T07:42:17.185Z,16.20
2022-08-24T07:44:48.997Z,15.25
2022-08-24T07:50:05.744Z,16.90
2022-08-24T07:52:33.729Z,17.38
2022-08-24T07:55:03.152Z,16.70
2022-08-24T07:57:31.344Z,16.33
2022-08-24T07:59:59.774Z,16.02
2022-08-24T08:02:29.867Z,16.65
2022-08-24T08:05:03.040Z,15.48
2022-08-24T08:07:32.323Z,16.70
2022-08-24T08:10:00.547Z,16.23
2022-08-24T08:12:29.936Z,16.00
2022-08-24T08:14:58.444Z,16.20
2022-08-24T08:17:26.592Z,14.38
2022-08-24T08:19:54.832Z,15.85
2022-08-24T08:22:40.238Z,15.98
2022-08-24T08:25:08.818Z,15.55
2022-08-24T08:27:38.206Z,15.35
2022-08-24T08:30:07.964Z,16.42
2022-08-24T08:32:35.943Z,15.50
2022-08-24T08:35:05.149Z,16.83
2022-08-24T08:37:33.357Z,15.65
2022-08-24T08:40:01.565Z,16.48
2022-08-24T08:42:38.476Z,16.63
2022-08-24T08:45:14.286Z,16.02
2022-08-24T08:48:05.547Z,16.15
2022-08-24T08:50:39.852Z,15.27
2022-08-24T08:53:31.690Z,14.98
2022-08-24T08:56:04.691Z,15.00
2022-08-24T08:58:53.784Z,15.38
2022-08-24T09:01:32.554Z,14.57
2022-08-24T09:04:31.747Z,13.70
2022-08-24T09:07:17.254Z,14.60
2022-08-24T09:09:55.989Z,14.82
2022-08-24T09:12:32.745Z,14.93
2022-08-24T09:15:18.783Z,14.55
2022-08-24T09:17:58.353Z,14.38
2022-08-24T09:20:50.004Z,13.80
2022-08-24T09:23:25.800Z,14.10
2022-08-24T09:26:00.502Z,13.15
2022-08-24T09:28:50.562Z,14.77
2022-08-24T09:31:29.661Z,14.25
2022-08-24T09:34:08.515Z,13.95
2022-08-24T09:36:48.281Z,14.30
2022-08-24T09:39:28.791Z,12.73
2022-08-24T09:42:19.748Z,11.80
2022-08-24T09:47:53.146Z,11.82
2022-08-24T09:50:53.793Z,12.70
2022-08-24T09:53:43.919Z,12.13
2022-08-24T09:56:24.752Z,11.50
2022-08-24T09:59:29.055Z,11.02
2022-08-24T10:02:11.468Z,11.85
2022-08-24T10:04:46.054Z,10.35
2022-08-24T10:07:18.733Z,11.57
2022-08-24T10:10:00.871Z,11.48
2022-08-24T10:12:47.296Z,10.25
2022-08-24T10:15:18.959Z,10.40
2022-08-24T10:17:56.696Z,10.93
2022-08-24T10:20:29.443Z,11.00
2022-08-24T10:23:07.947Z,11.00
2022-08-24T10:25:40.358Z,10.88
2022-08-24T10:28:27.936Z,9.90
2022-08-24T10:31:10.833Z,10.48
2022-08-24T10:33:50.216Z,9.85
2022-08-24T10:36:32.870Z,10.48
2022-08-24T10:39:31.205Z,10.27
2022-08-24T10:42:48.075Z,10.18
2022-08-24T10:45:50.050Z,9.00
2022-08-24T10:48:33.367Z,10.48
2022-08-24T10:51:11.167Z,9.75
2022-08-24T10:53:41.091Z,9.50
2022-08-24T10:56:12.471Z,9.55
2022-08-24T10:58:51.925Z,9.65
2022-08-24T11:01:26.621Z,8.35
2022-08-24T11:03:58.998Z,8.63
2022-08-24T11:06:30.868Z,8.43
2022-08-24T11:09:04.410Z,8.25
2022-08-24T11:11:34.892Z,7.78
2022-08-24T11:14:06.418Z,8.50
2022-08-24T11:16:39.666Z,8.77
2022-08-24T11:19:11.393Z,8.75
2022-08-24T11:21:44.091Z,8.75
2022-08-24T11:24:28.679Z,8.65
2022-08-24T11:26:59.354Z,9.30
2022-08-24T11:29:31.353Z,8.85
2022-08-24T11:31:59.974Z,8.93
2022-08-24T11:34:35.164Z,7.82
2022-08-24T11:37:03.785Z,8.02
2022-08-24T11:39:35.942Z,8.98
2022-08-24T11:42:15.451Z,8.20
2022-08-24T11:44:48.421Z,8.73
2022-08-24T11:47:40.898Z,8.88
2022-08-24T11:50:29.953Z,8.77
2022-08-24T11:53:12.031Z,8.70
2022-08-24T11:55:51.724Z,8.82
2022-08-24T11:58:37.009Z,8.88
2022-08-24T12:01:07.954Z,8.55
2022-08-24T12:03:47.382Z,7.75
2022-08-24T12:06:31.496Z,7.93
2022-08-24T12:09:07.160Z,8.43
2022-08-24T12:11:40.836Z,6.78
2022-08-24T12:14:10.807Z,7.18
2022-08-24T12:16:43.323Z,8.02
2022-08-24T12:19:16.977Z,7.68
2022-08-24T12:21:48.232Z,7.22
2022-08-24T12:24:19.261Z,6.73
2022-08-24T12:26:52.284Z,6.78
2022-08-24T12:29:25.972Z,7.20
2022-08-24T12:31:57.020Z,7.43
2022-08-24T12:34:30.667Z,7.68
2022-08-24T12:37:02.923Z,7.20
2022-08-24T12:39:43.531Z,8.55
2022-08-24T12:42:17.454Z,6.88
2022-08-24T12:44:49.588Z,7.45
2022-08-24T12:49:52.599Z,7.18
2022-08-24T12:52:31.689Z,6.20
2022-08-24T12:55:12.823Z,6.40
2022-08-24T12:58:03.598Z,7.40
2022-08-24T13:00:37.197Z,7.18
2022-08-24T13:03:09.867Z,6.60
2022-08-24T13:05:43.915Z,7.40
2022-08-24T13:08:15.560Z,7.13
2022-08-24T13:10:46.751Z,6.70
2022-08-24T13:13:22.467Z,8.35
2022-08-24T13:16:03.250Z,7.18
2022-08-24T13:18:54.518Z,7.35
2022-08-24T13:21:44.879Z,8.00
2022-08-24T13:24:50.347Z,5.05
2022-08-24T13:28:12.703Z,5.10
2022-08-24T13:31:06.576Z,6.78
2022-08-24T13:33:38.527Z,6.72
2022-08-24T13:36:24.574Z,7.30
2022-08-24T13:39:01.974Z,6.97
2022-08-24T13:41:40.434Z,6.68
2022-08-24T13:44:13.109Z,8.13
2022-08-24T13:46:49.419Z,7.50
2022-08-24T13:49:25.493Z,6.68
2022-08-24T13:51:58.232Z,7.03
2022-08-24T13:54:28.576Z,6.40
2022-08-24T13:57:04.685Z,5.93
2022-08-24T13:59:47.011Z,6.35
2022-08-24T14:02:28.316Z,6.45
2022-08-24T14:05:03.364Z,7.13
2022-08-24T14:07:34.644Z,6.47
2022-08-24T14:10:09.220Z,5.80
2022-08-24T14:12:45.782Z,5.97
2022-08-24T14:15:24.324Z,6.90
2022-08-24T14:18:01.713Z,6.43
2022-08-24T14:20:44.780Z,7.18
2022-08-24T14:23:25.287Z,7.47
2022-08-24T14:26:32.352Z,6.55
2022-08-24T14:29:30.736Z,6.47
2022-08-24T14:32:29.394Z,6.70
2022-08-24T14:35:07.161Z,7.78
2022-08-24T14:37:42.287Z,7.05
2022-08-24T14:40:17.596Z,6.93
2022-08-24T14:42:54.197Z,7.18
2022-08-24T14:45:34.378Z,7.75
2022-08-24T14:48:06.445Z,8.35
2022-08-24T14:53:15.125Z,7.03
2022-08-24T14:55:48.852Z,7.47
2022-08-24T14:58:30.386Z,7.20
2022-08-24T15:01:33.329Z,6.95
2022-08-24T15:04:10.932Z,6.90
2022-08-24T15:06:47.224Z,7.43
2022-08-24T15:09:24.923Z,7.32
2022-08-24T15:11:55.345Z,7.78
2022-08-24T15:14:33.796Z,8.13
2022-08-24T15:17:11.365Z,8.05
2022-08-24T15:19:47.591Z,7.82
2022-08-24T15:22:25.617Z,8.02
2022-08-24T15:24:59.679Z,7.22
2022-08-24T15:27:39.272Z,7.93
2022-08-24T15:30:09.502Z,8.05
2022-08-24T15:32:48.749Z,7.43
2022-08-24T15:35:25.747Z,7.85
2022-08-24T15:37:53.874Z,7.47
2022-08-24T15:40:26.983Z,6.80
2022-08-24T15:42:55.203Z,6.95
2022-08-24T15:45:23.338Z,7.32
2022-08-24T15:47:54.572Z,7.57
2022-08-24T15:50:26.334Z,7.07
2022-08-24T15:52:57.660Z,7.55
2022-08-24T15:55:37.104Z,7.23
2022-08-24T15:58:16.686Z,7.60
2022-08-24T16:01:02.507Z,7.35
2022-08-24T16:03:47.069Z,7.03
2022-08-24T16:06:27.232Z,7.85
2022-08-24T16:08:59.291Z,7.35
2022-08-24T16:13:57.349Z,7.22
2022-08-24T16:16:37.953Z,7.00
2022-08-24T16:19:09.203Z,7.15
2022-08-24T16:21:40.039Z,6.30
2022-08-24T16:24:10.594Z,8.32
2022-08-24T16:26:55.395Z,6.68
2022-08-24T16:29:46.219Z,6.85
2022-08-24T16:32:22.239Z,7.18
2022-08-24T16:35:18.903Z,7.47
2022-08-24T16:37:46.991Z,7.68
2022-08-24T16:40:15.611Z,6.88
2022-08-24T16:42:43.767Z,7.72
2022-08-24T16:45:17.228Z,7.63
2022-08-24T16:47:46.865Z,7.53
2022-08-24T16:50:17.389Z,7.20
2022-08-24T16:52:45.592Z,6.93
2022-08-24T16:55:14.754Z,7.03
2022-08-24T16:57:43.804Z,7.80
2022-08-24T17:00:15.670Z,8.10
2022-08-24T17:02:44.489Z,7.32
2022-08-24T17:05:13.198Z,7.80
2022-08-24T17:07:43.069Z,7.32
2022-08-24T17:10:12.863Z,7.38
2022-08-24T17:12:40.853Z,7.07
2022-08-24T17:15:12.779Z,6.90
2022-08-24T17:17:41.721Z,7.05
2022-08-24T17:20:10.982Z,6.93
2022-08-24T17:22:39.504Z,7.82
2022-08-24T17:25:09.110Z,7.40
2022-08-24T17:27:37.214Z,7.25
2022-08-24T17:30:06.635Z,8.15
2022-08-24T17:32:34.639Z,6.88
2022-08-24T17:35:03.408Z,6.97
2022-08-24T17:37:31.723Z,6.38
2022-08-24T17:40:01.830Z,7.20
2022-08-24T17:42:50.308Z,6.68
2022-08-24T17:45:20.423Z,6.72
2022-08-24T17:47:48.423Z,5.78
2022-08-24T17:50:19.216Z,7.20
2022-08-24T17:52:48.478Z,5.95
2022-08-24T17:55:18.456Z,5.72
2022-08-24T17:57:55.112Z,6.53
2022-08-24T18:00:23.108Z,6.30
2022-08-24T18:02:51.180Z,5.93
2022-08-24T18:05:19.352Z,6.03
2022-08-24T18:07:54.691Z,6.35
2022-08-24T18:10:25.207Z,7.00
2022-08-24T18:12:54.871Z,6.07
2022-08-24T18:15:35.405Z,6.55
2022-08-24T18:18:08.884Z,7.70
2022-08-24T18:20:39.329Z,6.95
2022-08-24T18:23:11.656Z,6.38
2022-08-24T18:25:45.815Z,7.18
2022-08-24T18:28:15.525Z,7.05
2022-08-24T18:30:44.063Z,6.18
2022-08-24T18:33:12.138Z,6.88
2022-08-24T18:35:40.169Z,6.07
2022-08-24T18:38:08.504Z,6.93
2022-08-24T18:40:37.084Z,6.18
2022-08-24T18:43:05.395Z,6.68
2022-08-24T18:45:35.721Z,6.68
2022-08-24T18:48:04.246Z,6.53
2022-08-24T18:50:33.454Z,6.93
2022-08-24T18:53:02.164Z,6.65
2022-08-24T18:55:30.578Z,6.88
2022-08-24T18:57:58.645Z,7.10
2022-08-24T19:00:26.775Z,6.55
2022-08-24T19:02:59.331Z,6.43
2022-08-24T19:05:27.333Z,6.18
2022-08-24T19:07:55.366Z,6.43
2022-08-24T19:10:26.127Z,6.93
2022-08-24T19:12:58.351Z,6.93
2022-08-24T19:18:11.167Z,6.60
2022-08-24T19:20:44.679Z,7.05
2022-08-24T19:23:18.861Z,5.82
2022-08-24T19:25:47.217Z,6.80
2022-08-24T19:28:17.456Z,6.70
2022-08-24T19:30:46.880Z,6.40
2022-08-24T19:33:22.104Z,6.93
2022-08-24T19:35:51.664Z,7.55
2022-08-24T19:38:24.643Z,6.90
2022-08-24T19:40:54.144Z,6.93
2022-08-24T19:43:22.181Z,7.22
2022-08-24T19:46:03.434Z,7.05
2022-08-24T19:48:33.720Z,6.90
2022-08-24T19:51:03.291Z,7.70
2022-08-24T19:53:33.475Z,8.23
2022-08-24T19:56:01.746Z,7.97
2022-08-24T19:58:31.413Z,8.38
2022-08-24T20:01:05.652Z,7.97
2022-08-24T20:03:35.056Z,7.63
2022-08-24T20:06:03.157Z,8.38
2022-08-24T20:08:31.405Z,8.57
2022-08-24T20:11:00.544Z,9.05
2022-08-24T20:13:28.676Z,9.40
2022-08-24T20:15:57.215Z,8.70
2022-08-24T20:18:28.515Z,9.00
2022-08-24T20:20:57.920Z,9.05
2022-08-24T20:23:26.166Z,10.63
2022-08-24T20:25:54.600Z,10.52
2022-08-24T20:28:29.137Z,10.77
2022-08-24T20:30:57.436Z,10.88
2022-08-24T20:33:27.596Z,12.10
2022-08-24T20:35:56.206Z,12.55
2022-08-24T20:38:25.746Z,12.60
2022-08-24T20:40:59.687Z,12.20
2022-08-24T20:43:28.184Z,13.20
2022-08-24T20:45:56.739Z,12.38
2022-08-24T20:48:28.547Z,12.00
2022-08-24T20:50:56.535Z,11.05
2022-08-24T20:53:26.750Z,11.35
2022-08-24T20:55:56.692Z,11.15
2022-08-24T20:58:24.914Z,11.13
2022-08-24T21:00:52.997Z,11.65
2022-08-24T21:03:21.399Z,10.63
2022-08-24T21:05:52.252Z,10.90
2022-08-24T21:08:20.446Z,11.77
2022-08-24T21:10:49.746Z,10.68
2022-08-24T21:13:17.747Z,12.18
2022-08-24T21:15:46.401Z,9.52
2022-08-24T21:18:14.914Z,10.18
2022-08-24T21:20:49.266Z,10.75
2022-08-24T21:23:31.704Z,10.63
2022-08-24T21:26:02.187Z,10.13
2022-08-24T21:28:30.476Z,9.77
2022-08-24T21:31:01.405Z,10.48
2022-08-24T21:33:49.677Z,11.07
2022-08-24T21:36:17.871Z,9.77
2022-08-24T21:38:45.831Z,8.65
2022-08-24T21:41:15.623Z,9.27
2022-08-24T21:43:43.588Z,9.65
2022-08-24T21:46:11.733Z,9.93
2022-08-24T21:48:39.959Z,9.98
2022-08-24T21:51:08.160Z,10.02
2022-08-24T21:53:36.936Z,9.63
2022-08-24T21:56:05.360Z,9.35
2022-08-24T21:58:34.774Z,9.43
2022-08-24T22:01:03.883Z,10.05
2022-08-24T22:03:39.929Z,9.68
2022-08-24T22:06:09.596Z,9.50
2022-08-24T22:08:37.799Z,9.63
2022-08-24T22:11:06.688Z,9.85
2022-08-24T22:13:36.477Z,9.68
2022-08-24T22:16:05.634Z,10.02
2022-08-24T22:18:34.120Z,10.18
2022-08-24T22:21:07.754Z,9.77
2022-08-24T22:23:36.358Z,10.15
2022-08-24T22:26:05.560Z,9.70
2022-08-24T22:28:34.450Z,9.00
2022-08-24T22:31:04.119Z,9.70
2022-08-24T22:33:32.084Z,10.00
2022-08-24T22:36:00.066Z,9.57
2022-08-24T22:38:28.139Z,8.93
2022-08-24T22:40:56.520Z,8.90
2022-08-24T22:43:44.493Z,9.30
2022-08-24T22:46:14.048Z,9.00
2022-08-24T22:48:42.186Z,8.05
2022-08-24T22:51:10.826Z,8.88
2022-08-24T22:53:39.763Z,9.48
2022-08-24T22:56:14.975Z,9.90
2022-08-24T22:58:42.976Z,10.32
2022-08-24T23:01:10.959Z,10.25
2022-08-24T23:03:40.355Z,11.23
2022-08-24T23:06:08.767Z,10.98
2022-08-24T23:08:36.797Z,11.13
2022-08-24T23:11:04.824Z,12.00
2022-08-24T23:13:32.798Z,11.20
2022-08-24T23:16:01.340Z,11.23
2022-08-24T23:18:46.780Z,11.57
2022-08-24T23:21:16.327Z,12.15
2022-08-24T23:23:44.332Z,12.15
2022-08-24T23:26:18.228Z,12.15
2022-08-24T23:28:50.198Z,12.80
2022-08-24T23:31:19.983Z,12.73
2022-08-24T23:33:48.330Z,12.05
2022-08-24T23:36:21.015Z,12.45
2022-08-24T23:38:50.284Z,13.70
2022-08-24T23:41:20.888Z,13.38
2022-08-24T23:43:48.988Z,13.50
2022-08-24T23:46:17.627Z,13.35
2022-08-24T23:48:51.133Z,13.60
2022-08-24T23:51:25.484Z,13.63
2022-08-24T23:53:53.895Z,14.55
2022-08-24T23:56:25.268Z,14.48
2022-08-24T23:58:54.173Z,15.10
